East Newport, Pennsylvania
Current Conditions -  °F | °C
As of 11:28 PM on Sunday 25 Jan 2015 (Local Time) from KCXY Reporting Station
Light Snow Light Snow  
Wind Chill: 23°   Ceiling: 800
Heat Index: 33°   Visibility: 2.5mi
Dew Point: 30°   Wind: 14mph
Humidity: 89%   Direction: 80°E
Pressure: 29.9"   Gusts: NA
Location:  40.4932°N, 77.217°W
Report Text: KCXY 260428Z AUTO 08012KT 2 1/2SM -SN BR OVC008 01/M01 A2990 RMK AO2 CIG 006V010 P0001 T00061011
Loading
Personal Weather Stations






























Interactive Weather Map New forecast layout! Learn more

10-Day Weather Forecast

Advertisements
Track Severe Weather on mobile